createdAt,value
2022-11-27T00:01:53.894Z,6.90
2022-11-27T00:06:56.297Z,7.30
2022-11-27T00:11:58.738Z,7.70
2022-11-27T00:17:01.055Z,7.70
2022-11-27T00:22:03.401Z,7.50
2022-11-27T00:27:05.816Z,7.60
2022-11-27T00:32:08.146Z,7.60
2022-11-27T00:37:10.655Z,7.40
2022-11-27T00:42:12.937Z,6.90
2022-11-27T00:47:15.206Z,6.70
2022-11-27T00:52:17.583Z,6.50
2022-11-27T00:57:19.877Z,6.40
2022-11-27T01:02:22.292Z,6.50
2022-11-27T01:07:26.759Z,6.50
2022-11-27T01:12:29.241Z,6.80
2022-11-27T01:17:31.519Z,6.90
2022-11-27T01:22:33.812Z,7.00
2022-11-27T01:27:36.168Z,7.00
2022-11-27T01:32:38.441Z,6.70
2022-11-27T01:37:40.708Z,6.70
2022-11-27T01:42:42.963Z,6.50
2022-11-27T01:47:55.918Z,6.50
2022-11-27T01:53:07.868Z,6.50
2022-11-27T01:58:13.938Z,6.70
2022-11-27T02:03:16.521Z,6.60
2022-11-27T02:08:19.143Z,6.60
2022-11-27T02:13:43.939Z,6.70
2022-11-27T02:19:28.241Z,6.40
2022-11-27T02:24:53.978Z,6.50
2022-11-27T02:29:59.523Z,6.20
2022-11-27T02:35:19.587Z,6.20
2022-11-27T02:40:37.954Z,6.30
2022-11-27T02:45:44.977Z,6.50
2022-11-27T02:50:50.116Z,6.50
2022-11-27T02:55:53.734Z,6.20
2022-11-27T03:00:57.700Z,6.70
2022-11-27T03:06:05.960Z,6.50
2022-11-27T03:11:13.778Z,5.80
2022-11-27T03:16:40.569Z,5.90
2022-11-27T03:21:48.290Z,6.70
2022-11-27T03:26:51.521Z,6.40
2022-11-27T03:31:55.166Z,6.30
2022-11-27T03:36:57.577Z,6.00
2022-11-27T03:42:23.880Z,5.80
2022-11-27T03:47:35.678Z,6.10
2022-11-27T03:52:47.064Z,5.80
2022-11-27T03:58:03.521Z,6.00
2022-11-27T04:03:09.653Z,6.10
2022-11-27T04:08:11.909Z,6.20
2022-11-27T04:13:14.956Z,6.30
2022-11-27T04:18:17.644Z,6.50
2022-11-27T04:23:19.993Z,6.70
2022-11-27T04:28:22.268Z,6.80
2022-11-27T04:33:24.710Z,7.20
2022-11-27T04:38:26.970Z,7.30
2022-11-27T04:43:29.417Z,7.40
2022-11-27T04:48:31.684Z,7.30
2022-11-27T04:53:33.954Z,7.20
2022-11-27T04:58:36.285Z,7.00
2022-11-27T05:03:38.834Z,7.20
2022-11-27T05:08:41.296Z,6.90
2022-11-27T05:13:44.251Z,6.80
2022-11-27T05:18:46.493Z,7.10
2022-11-27T05:23:48.849Z,7.50
2022-11-27T05:28:51.111Z,7.50
2022-11-27T05:33:53.433Z,7.70
2022-11-27T05:38:55.736Z,7.20
2022-11-27T05:43:58.012Z,7.30
2022-11-27T05:49:00.413Z,7.30
2022-11-27T05:54:02.773Z,7.40
2022-11-27T05:59:05.256Z,7.60
2022-11-27T06:04:07.636Z,7.50
2022-11-27T06:09:13.030Z,7.50
2022-11-27T06:14:15.979Z,7.10
2022-11-27T06:19:18.228Z,6.90
2022-11-27T06:24:20.892Z,6.70
2022-11-27T06:29:23.195Z,6.80
2022-11-27T06:34:25.531Z,7.40
2022-11-27T06:39:27.803Z,7.50
2022-11-27T06:44:30.072Z,7.30
2022-11-27T06:49:32.372Z,7.50
2022-11-27T06:54:34.707Z,7.70
2022-11-27T06:59:37.010Z,7.80
2022-11-27T07:04:39.604Z,7.80
2022-11-27T07:09:42.140Z,7.60
2022-11-27T07:14:44.389Z,8.00
2022-11-27T07:19:47.046Z,7.50
2022-11-27T07:24:49.352Z,6.90
2022-11-27T07:29:51.701Z,6.70
2022-11-27T07:34:54.492Z,6.80
2022-11-27T07:40:04.222Z,7.30
2022-11-27T07:45:08.359Z,7.60
2022-11-27T07:50:11.306Z,7.80
2022-11-27T07:55:14.071Z,7.70
2022-11-27T08:00:16.832Z,7.80
2022-11-27T08:05:19.277Z,8.00
2022-11-27T08:10:21.697Z,8.10
2022-11-27T08:15:24.281Z,8.10
2022-11-27T08:20:27.001Z,8.10
2022-11-27T08:25:29.410Z,8.10
2022-11-27T08:30:31.833Z,8.20
2022-11-27T08:35:34.219Z,7.80
2022-11-27T08:40:39.151Z,7.80
2022-11-27T08:45:41.622Z,7.80
2022-11-27T08:50:44.395Z,7.50
2022-11-27T08:55:47.012Z,7.50
2022-11-27T09:00:49.486Z,7.60
2022-11-27T09:05:51.843Z,7.70
2022-11-27T09:10:54.175Z,7.90
2022-11-27T09:15:57.817Z,8.00
2022-11-27T09:21:02.740Z,7.90
2022-11-27T09:26:07.682Z,8.00
2022-11-27T09:31:12.815Z,8.30
2022-11-27T09:36:18.166Z,8.50
2022-11-27T09:41:44.132Z,8.20
2022-11-27T09:46:46.558Z,7.80
2022-11-27T09:52:14.333Z,7.90
2022-11-27T09:57:26.534Z,8.10
2022-11-27T10:02:31.737Z,8.00
2022-11-27T10:07:48.781Z,8.10
2022-11-27T10:12:59.428Z,8.00
2022-11-27T10:18:30.272Z,8.10
2022-11-27T10:23:46.204Z,8.50
2022-11-27T10:29:11.400Z,8.30
2022-11-27T10:34:47.130Z,8.50
2022-11-27T10:40:09.335Z,8.50
2022-11-27T10:45:39.315Z,8.80
2022-11-27T10:50:42.528Z,9.00
2022-11-27T10:56:17.217Z,8.70
2022-11-27T11:01:21.565Z,8.90
2022-11-27T11:06:26.884Z,9.00
2022-11-27T11:11:29.487Z,8.90
2022-11-27T11:16:35.348Z,9.10
2022-11-27T11:21:42.470Z,9.60
2022-11-27T11:26:46.867Z,9.60
2022-11-27T11:31:49.275Z,9.50
2022-11-27T11:37:02.610Z,9.90
2022-11-27T11:42:25.452Z,10.10
2022-11-27T11:47:29.415Z,9.90
2022-11-27T11:52:59.223Z,10.00
2022-11-27T11:58:32.665Z,10.20
2022-11-27T12:03:55.936Z,10.30
2022-11-27T12:09:09.292Z,10.30
2022-11-27T12:14:40.578Z,10.30
2022-11-27T12:20:06.921Z,10.50
2022-11-27T12:25:36.636Z,10.40
2022-11-27T12:30:46.050Z,10.50
2022-11-27T12:35:58.900Z,10.50
2022-11-27T12:41:22.564Z,10.50
2022-11-27T12:46:37.494Z,10.30
2022-11-27T12:51:52.848Z,10.20
2022-11-27T12:57:02.601Z,10.30
2022-11-27T13:02:39.660Z,10.10
2022-11-27T13:07:56.178Z,9.90
2022-11-27T13:13:11.168Z,9.80
2022-11-27T13:18:21.789Z,9.90
2022-11-27T13:23:24.238Z,9.90
2022-11-27T13:28:44.199Z,10.10
2022-11-27T13:33:47.398Z,10.10
2022-11-27T13:38:59.711Z,10.00
2022-11-27T13:44:04.155Z,9.90
2022-11-27T13:49:08.220Z,9.90
2022-11-27T13:54:16.890Z,9.80
2022-11-27T13:59:24.786Z,9.60
2022-11-27T14:04:28.181Z,9.20
2022-11-27T14:09:44.308Z,9.40
2022-11-27T14:15:23.386Z,9.40
2022-11-27T14:20:32.261Z,9.20
2022-11-27T14:25:36.558Z,9.50
2022-11-27T14:31:00.750Z,9.40
2022-11-27T14:36:06.148Z,9.20
2022-11-27T14:41:11.876Z,9.40
2022-11-27T14:46:20.990Z,9.50
2022-11-27T14:51:37.772Z,9.50
2022-11-27T14:56:43.240Z,9.30
2022-11-27T15:01:57.410Z,9.00
2022-11-27T15:07:01.009Z,9.10
2022-11-27T15:12:09.089Z,9.20
2022-11-27T15:17:17.295Z,9.40
2022-11-27T15:22:20.179Z,9.50
2022-11-27T15:27:23.678Z,9.50
2022-11-27T15:32:34.709Z,9.60
2022-11-27T15:37:39.074Z,9.70
2022-11-27T15:42:41.498Z,9.70
2022-11-27T15:47:56.735Z,9.30
2022-11-27T15:53:01.007Z,9.40
2022-11-27T15:58:04.354Z,9.40
2022-11-27T16:03:06.962Z,9.20
2022-11-27T16:08:12.362Z,9.30
2022-11-27T16:13:14.730Z,9.60
2022-11-27T16:18:17.782Z,9.50
2022-11-27T16:23:20.436Z,9.40
2022-11-27T16:28:23.225Z,9.20
2022-11-27T16:33:30.780Z,9.00
2022-11-27T16:38:33.844Z,8.80
2022-11-27T16:43:42.266Z,8.80
2022-11-27T16:48:46.178Z,9.00
2022-11-27T16:53:51.926Z,8.80
2022-11-27T16:59:02.835Z,8.70
2022-11-27T17:04:09.173Z,8.60
2022-11-27T17:09:11.847Z,8.70
2022-11-27T17:14:14.268Z,8.70
2022-11-27T17:19:18.655Z,8.40
2022-11-27T17:24:21.315Z,8.50
2022-11-27T17:29:26.083Z,8.40
2022-11-27T17:34:28.396Z,8.30
2022-11-27T17:39:30.833Z,8.50
2022-11-27T17:44:34.483Z,8.40
2022-11-27T17:49:36.777Z,8.40
2022-11-27T17:54:39.340Z,8.60
2022-11-27T17:59:41.793Z,8.60
2022-11-27T18:04:44.990Z,8.70
2022-11-27T18:09:50.208Z,8.30
2022-11-27T18:14:57.903Z,8.20
2022-11-27T18:20:04.685Z,7.90
2022-11-27T18:25:07.283Z,8.00
2022-11-27T18:30:10.494Z,8.10
2022-11-27T18:35:12.861Z,8.30
2022-11-27T18:40:15.198Z,8.30
2022-11-27T18:45:32.160Z,8.20
2022-11-27T18:50:35.955Z,8.70
2022-11-27T18:55:38.521Z,8.70
2022-11-27T19:00:40.930Z,8.70
2022-11-27T19:05:44.355Z,8.70
2022-11-27T19:10:46.729Z,8.30
2022-11-27T19:15:50.410Z,8.20
2022-11-27T19:20:54.932Z,8.10
2022-11-27T19:25:58.251Z,8.00
2022-11-27T19:31:04.333Z,7.90
2022-11-27T19:36:13.029Z,7.90
2022-11-27T19:41:17.994Z,7.90
2022-11-27T19:46:26.791Z,8.00
2022-11-27T19:51:32.537Z,8.00
2022-11-27T19:56:37.474Z,8.10
2022-11-27T20:01:40.686Z,8.10
2022-11-27T20:06:43.224Z,7.70
2022-11-27T20:11:45.625Z,7.80
2022-11-27T20:16:49.765Z,7.80
2022-11-27T20:21:52.532Z,7.90
2022-11-27T20:26:54.961Z,7.90
2022-11-27T20:31:57.679Z,7.90
2022-11-27T20:37:00.533Z,8.30
2022-11-27T20:42:03.110Z,8.40
2022-11-27T20:47:06.181Z,8.40
2022-11-27T20:52:10.648Z,8.20
2022-11-27T20:57:14.418Z,8.40
2022-11-27T21:02:16.749Z,8.60
2022-11-27T21:07:20.404Z,8.60
2022-11-27T21:12:22.746Z,8.70
2022-11-27T21:17:25.441Z,8.70
2022-11-27T21:22:28.756Z,8.80
2022-11-27T21:27:31.216Z,8.80
2022-11-27T21:32:33.579Z,8.70
2022-11-27T21:37:36.902Z,8.80
2022-11-27T21:42:44.369Z,8.80
2022-11-27T21:47:47.437Z,9.10
2022-11-27T21:52:52.256Z,8.80
2022-11-27T21:57:55.405Z,8.70
2022-11-27T22:02:59.937Z,8.60
2022-11-27T22:08:02.422Z,8.70
2022-11-27T22:13:04.922Z,8.80
2022-11-27T22:18:07.411Z,9.00
2022-11-27T22:23:09.839Z,8.90
2022-11-27T22:28:12.625Z,8.90
2022-11-27T22:33:14.942Z,8.90
2022-11-27T22:38:17.533Z,9.00
2022-11-27T22:43:19.965Z,9.00
2022-11-27T22:48:22.746Z,8.80
2022-11-27T22:53:25.620Z,8.80
2022-11-27T22:58:28.213Z,8.60
2022-11-27T23:03:31.705Z,8.90
2022-11-27T23:08:34.308Z,8.90
2022-11-27T23:13:36.934Z,9.20
2022-11-27T23:18:39.521Z,8.90
2022-11-27T23:23:42.794Z,9.20
2022-11-27T23:28:46.110Z,9.00
2022-11-27T23:33:48.570Z,9.00
2022-11-27T23:38:51.424Z,8.90
2022-11-27T23:43:54.300Z,9.20
2022-11-27T23:48:59.390Z,9.10
2022-11-27T23:54:05.540Z,9.20
2022-11-27T23:59:07.838Z,9.20
